Time;durP1;ratioP1;P1;durP2;ratioP2;P2;SDS_P1;SDS_P2;PMS_P1;PMS_P2;Temp;Humidity;BMP_temperature;BMP_pressure;BME280_temperature;BME280_humidity;BME280_pressure;Samples;Min_cycle;Max_cycle;Signal;HPM_P1;HPM_P2
2021/08/20 00:01:16;;;;;;;;;;;;;;;22.84;58.20;101038.06;4940196;28;97304;-77
2021/08/20 00:03:42;;;;;;;;;;;;;;;22.60;58.99;101046.25;4950769;28;99025;-78
2021/08/20 00:06:09;;;;;;;;;;;;;;;22.80;58.10;101042.81;4958067;28;97798;-77
2021/08/20 00:08:35;;;;;;;;;;;;;;;22.50;58.91;101040.78;4958065;28;96748;-77
2021/08/20 00:11:03;;;;;;;;;;;;;;;22.77;58.46;101044.94;4958356;28;96682;-76
2021/08/20 00:13:29;;;;;;;;;;;;;;;22.62;58.62;101042.47;4939030;28;99278;-77
2021/08/20 00:15:56;;;;;;;;;;;;;;;22.66;58.57;101041.22;4938839;28;99113;-77
2021/08/20 00:18:22;;;;;;;;;;;;;;;22.96;57.66;101042.44;4951307;28;97338;-77
2021/08/20 00:20:48;;;;;;;;;;;;;;;23.00;57.30;101038.50;4938734;28;96816;-76
2021/08/20 00:23:14;;;;;;;;;;;;;;;23.01;57.41;101042.91;4955953;28;97088;-76
2021/08/20 00:25:41;;;;;;;;;;;;;;;23.11;57.01;101041.13;4957954;28;99174;-77
2021/08/20 00:28:08;;;;;;;;;;;;;;;22.70;58.69;101041.84;4954051;28;98304;-77
2021/08/20 00:30:35;;;;;;;;;;;;;;;22.77;58.39;101043.09;4957683;28;96986;-77
2021/08/20 00:33:01;;;;;;;;;;;;;;;22.65;58.38;101042.19;4957784;28;99085;-77
2021/08/20 00:35:29;;;;;;;;;;;;;;;22.51;59.20;101039.75;4958674;28;99113;-76
2021/08/20 00:37:55;;;;;;;;;;;;;;;22.86;57.96;101042.31;4951443;28;96797;-77
2021/08/20 00:40:22;;;;;;;;;;;;;;;22.38;59.46;101043.59;4939556;28;96956;-78
2021/08/20 00:42:48;;;;;;;;;;;;;;;22.39;59.56;101043.44;4945653;28;99368;-77
2021/08/20 00:45:15;;;;;;;;;;;;;;;22.52;59.22;101036.09;4958536;28;98834;-78
2021/08/20 00:47:42;;;;;;;;;;;;;;;22.43;59.52;101038.69;4957342;28;97338;-77
2021/08/20 00:50:09;;;;;;;;;;;;;;;22.40;59.60;101037.09;4959194;28;97297;-78
2021/08/20 00:52:36;;;;;;;;;;;;;;;22.67;58.52;101037.56;4956452;28;98331;-78
2021/08/20 00:55:03;;;;;;;;;;;;;;;22.45;58.88;101034.88;4957626;28;98914;-77
2021/08/20 00:57:30;;;;;;;;;;;;;;;22.83;58.11;101036.34;4957486;28;97721;-78
2021/08/20 00:59:56;;;;;;;;;;;;;;;22.52;58.84;101036.09;4958547;28;97482;-77
2021/08/20 01:02:24;;;;;;;;;;;;;;;22.14;59.83;101036.47;4957883;28;98873;-76
2021/08/20 01:04:50;;;;;;;;;;;;;;;21.79;61.20;101027.59;4958040;28;98819;-76
2021/08/20 01:07:17;;;;;;;;;;;;;;;22.11;60.49;101033.19;4955361;28;96896;-75
2021/08/20 01:09:45;;;;;;;;;;;;;;;21.70;62.56;101039.94;4955565;28;97118;-76
2021/08/20 01:12:11;;;;;;;;;;;;;;;22.27;60.70;101044.44;4938447;28;99589;-77
2021/08/20 01:14:38;;;;;;;;;;;;;;;22.47;60.13;101035.63;4956580;28;99140;-77
2021/08/20 01:17:06;;;;;;;;;;;;;;;22.50;59.49;101032.69;4959396;28;96663;-77
2021/08/20 01:19:34;;;;;;;;;;;;;;;22.65;59.39;101033.25;4958625;28;96999;-76
2021/08/20 01:22:01;;;;;;;;;;;;;;;22.78;58.99;101039.38;4956820;28;98895;-77
2021/08/20 01:24:28;;;;;;;;;;;;;;;22.58;59.73;101035.59;4956819;28;98069;-77
2021/08/20 01:26:56;;;;;;;;;;;;;;;22.63;59.30;101033.41;4956190;28;96674;-77
2021/08/20 01:29:23;;;;;;;;;;;;;;;22.73;59.01;101036.22;4944685;28;96919;-76
2021/08/20 01:31:50;;;;;;;;;;;;;;;22.75;58.72;101038.81;4937147;28;101571;-77
2021/08/20 01:34:16;;;;;;;;;;;;;;;22.74;59.09;101034.38;4954887;28;98819;-77
2021/08/20 01:36:42;;;;;;;;;;;;;;;22.93;58.13;101038.13;4956024;28;97477;-77
2021/08/20 01:39:09;;;;;;;;;;;;;;;22.78;58.61;101035.84;4956021;28;96841;-76
2021/08/20 01:41:35;;;;;;;;;;;;;;;22.62;58.53;101039.78;4955661;28;99170;-78
2021/08/20 01:44:04;;;;;;;;;;;;;;;22.72;58.68;101034.47;4954836;28;99075;-78
2021/08/20 01:46:31;;;;;;;;;;;;;;;22.78;58.16;101039.38;4956163;28;96616;-77
2021/08/20 01:48:58;;;;;;;;;;;;;;;22.70;57.93;101038.28;4940591;28;97551;-77
2021/08/20 01:51:25;;;;;;;;;;;;;;;22.89;57.45;101033.13;4936370;28;97830;-77
2021/08/20 01:53:52;;;;;;;;;;;;;;;22.83;57.74;101039.91;4950663;28;99511;-78
2021/08/20 01:56:19;;;;;;;;;;;;;;;22.76;57.55;101035.13;4955724;28;96831;-76
2021/08/20 01:58:46;;;;;;;;;;;;;;;22.69;57.70;101039.28;4941429;28;97177;-76
2021/08/20 02:01:14;;;;;;;;;;;;;;;22.71;57.83;101038.16;4937317;28;99205;-76
2021/08/20 02:03:40;;;;;;;;;;;;;;;22.72;57.97;101036.31;4940473;28;97852;-76
2021/08/20 02:06:07;;;;;;;;;;;;;;;22.79;57.55;101035.72;4943180;28;96666;-76
2021/08/20 02:08:33;;;;;;;;;;;;;;;22.71;57.89;101037.31;4956292;28;96836;-77
2021/08/20 02:10:59;;;;;;;;;;;;;;;22.47;58.31;101042.84;4959515;28;99123;-77
2021/08/20 02:13:26;;;;;;;;;;;;;;;22.50;58.52;101046.16;4958011;28;97715;-77
2021/08/20 02:15:52;;;;;;;;;;;;;;;22.46;58.87;101039.28;4955547;28;97079;-78
2021/08/20 02:18:20;;;;;;;;;;;;;;;22.60;59.08;101040.88;4955153;28;97017;-77
2021/08/20 02:20:46;;;;;;;;;;;;;;;22.67;58.47;101042.06;4955330;28;98157;-77
2021/08/20 02:23:12;;;;;;;;;;;;;;;22.71;58.35;101048.09;4954188;28;99326;-75
2021/08/20 02:25:39;;;;;;;;;;;;;;;22.62;58.64;101050.53;4955473;28;96936;-77
2021/08/20 02:28:05;;;;;;;;;;;;;;;22.74;58.75;101051.41;4951698;28;97030;-78
2021/08/20 02:30:32;;;;;;;;;;;;;;;22.72;58.78;101045.25;4955375;28;98830;-78
2021/08/20 02:32:58;;;;;;;;;;;;;;;22.84;58.20;101052.34;4954795;28;100234;-76
2021/08/20 02:35:25;;;;;;;;;;;;;;;22.67;58.88;101053.72;4956162;28;96751;-76
2021/08/20 02:37:52;;;;;;;;;;;;;;;22.80;58.32;101047.34;4941212;28;96980;-77
2021/08/20 02:40:19;;;;;;;;;;;;;;;22.58;59.04;101051.75;4936822;28;97927;-76
2021/08/20 02:42:45;;;;;;;;;;;;;;;22.58;59.20;101048.19;4952578;28;98821;-78
2021/08/20 02:45:12;;;;;;;;;;;;;;;22.42;59.59;101043.22;4956411;28;97230;-75
2021/08/20 02:47:38;;;;;;;;;;;;;;;22.65;59.01;101050.28;4955488;28;96955;-75
2021/08/20 02:50:05;;;;;;;;;;;;;;;22.52;59.11;101041.47;4955057;28;99278;-77
2021/08/20 02:52:33;;;;;;;;;;;;;;;22.73;58.87;101046.13;4954782;28;97722;-76
2021/08/20 02:54:59;;;;;;;;;;;;;;;22.88;58.17;101052.97;4956150;28;96964;-78
2021/08/20 02:57:28;;;;;;;;;;;;;;;22.47;59.01;101045.53;4955393;28;96917;-78
2021/08/20 02:59:54;;;;;;;;;;;;;;;21.95;60.43;101038.88;4955749;28;99032;-77
2021/08/20 03:02:21;;;;;;;;;;;;;;;22.40;59.46;101047.00;4945688;28;99575;-76
2021/08/20 03:04:47;;;;;;;;;;;;;;;22.11;60.14;101044.81;4938621;28;96800;-77
2021/08/20 03:07:13;;;;;;;;;;;;;;;22.04;60.20;101037.31;4949557;28;96658;-78
2021/08/20 03:09:41;;;;;;;;;;;;;;;22.01;60.39;101040.25;4958591;28;99610;-76
2021/08/20 03:12:07;;;;;;;;;;;;;;;21.86;60.71;101035.06;4961533;28;98817;-76
2021/08/20 03:14:34;;;;;;;;;;;;;;;22.22;59.90;101036.72;4966816;28;96664;-79
2021/08/20 03:17:00;;;;;;;;;;;;;;;22.49;58.99;101028.28;4962760;28;96826;-76
2021/08/20 03:19:27;;;;;;;;;;;;;;;22.03;60.09;101038.31;4965249;28;99473;-75
2021/08/20 03:21:53;;;;;;;;;;;;;;;22.42;59.26;101042.34;4966002;28;98299;-78
2021/08/20 03:24:19;;;;;;;;;;;;;;;22.49;58.90;101038.19;4966829;28;96731;-75
2021/08/20 03:26:47;;;;;;;;;;;;;;;22.07;60.24;101043.31;4965357;28;96882;-76
2021/08/20 03:29:14;;;;;;;;;;;;;;;22.46;58.92;101043.81;4963114;28;101741;-77
2021/08/20 03:31:41;;;;;;;;;;;;;;;21.96;60.10;101037.94;4951768;28;98807;-76
2021/08/20 03:34:08;;;;;;;;;;;;;;;22.41;59.37;101046.88;4956550;28;98865;-78
2021/08/20 03:36:34;;;;;;;;;;;;;;;22.61;59.09;101048.81;4953379;28;96921;-78
2021/08/20 03:39:00;;;;;;;;;;;;;;;22.71;58.42;101043.53;4944778;28;98870;-76
2021/08/20 03:41:27;;;;;;;;;;;;;;;22.79;58.15;101054.56;4955702;28;97754;-77
2021/08/20 03:43:53;;;;;;;;;;;;;;;22.72;57.61;101053.34;4969901;28;96821;-77
2021/08/20 03:46:20;;;;;;;;;;;;;;;22.54;58.05;101047.59;4966454;28;96882;-78
2021/08/20 03:48:48;;;;;;;;;;;;;;;22.41;58.54;101051.41;4959671;28;97816;-76
2021/08/20 03:51:15;;;;;;;;;;;;;;;22.61;57.95;101053.34;4955997;28;99032;-77
2021/08/20 03:53:41;;;;;;;;;;;;;;;22.65;57.52;101052.13;4954828;28;96870;-77
2021/08/20 03:56:07;;;;;;;;;;;;;;;22.83;56.81;101047.13;4954577;28;97213;-76
2021/08/20 03:58:34;;;;;;;;;;;;;;;22.74;57.33;101055.94;4954467;28;99226;-78
2021/08/20 04:01:00;;;;;;;;;;;;;;;22.71;57.46;101050.78;4953212;28;99042;-76
2021/08/20 04:03:27;;;;;;;;;;;;;;;22.76;57.01;101052.16;4954946;28;97056;-76
2021/08/20 04:05:54;;;;;;;;;;;;;;;22.59;57.33;101055.31;4953702;28;98784;-77
2021/08/20 04:08:20;;;;;;;;;;;;;;;22.69;57.32;101050.03;4954332;28;99407;-76
2021/08/20 04:10:46;;;;;;;;;;;;;;;22.56;57.22;101044.78;4954836;28;98024;-78
2021/08/20 04:13:13;;;;;;;;;;;;;;;22.33;57.49;101056.53;4956179;28;96711;-76
2021/08/20 04:15:40;;;;;;;;;;;;;;;22.50;56.95;101054.22;4955821;28;97429;-77
2021/08/20 04:18:06;;;;;;;;;;;;;;;22.60;57.02;101057.03;4955542;28;98249;-76
2021/08/20 04:20:34;;;;;;;;;;;;;;;22.71;56.52;101058.88;4954530;28;99204;-76
2021/08/20 04:23:00;;;;;;;;;;;;;;;22.53;56.60;101053.97;4954161;28;96723;-77
2021/08/20 04:25:27;;;;;;;;;;;;;;;22.70;56.07;101060.69;4954510;28;96928;-77
2021/08/20 04:27:53;;;;;;;;;;;;;;;22.63;56.26;101065.72;4951118;28;98812;-77
2021/08/20 04:30:20;;;;;;;;;;;;;;;22.63;56.76;101065.72;4952136;28;99375;-75
2021/08/20 04:32:46;;;;;;;;;;;;;;;22.42;57.08;101069.28;4955440;28;96726;-75
2021/08/20 04:35:13;;;;;;;;;;;;;;;21.75;58.72;101064.63;4965884;28;96885;-76
2021/08/20 04:37:40;;;;;;;;;;;;;;;21.26;60.58;101067.50;4951371;28;98917;-77
2021/08/20 04:40:08;;;;;;;;;;;;;;;21.82;59.06;101068.56;4953000;28;99071;-77
2021/08/20 04:42:35;;;;;;;;;;;;;;;21.37;59.65;101069.38;4940910;28;97053;-76
2021/08/20 04:45:02;;;;;;;;;;;;;;;21.26;60.47;101075.56;4956382;28;97254;-76
2021/08/20 04:47:28;;;;;;;;;;;;;;;21.81;59.27;101079.44;4950598;28;98941;-74
2021/08/20 04:49:54;;;;;;;;;;;;;;;22.03;58.69;101078.66;4946268;28;99397;-75
2021/08/20 04:52:20;;;;;;;;;;;;;;;21.81;59.29;101074.91;4952422;28;97761;-76
2021/08/20 04:54:48;;;;;;;;;;;;;;;22.12;58.38;101077.97;4967271;28;96941;-76
2021/08/20 04:57:14;;;;;;;;;;;;;;;22.01;58.52;101072.53;4957097;28;100439;-76
2021/08/20 04:59:40;;;;;;;;;;;;;;;22.22;58.27;101073.56;4958550;28;99131;-76
2021/08/20 05:02:07;;;;;;;;;;;;;;;22.17;58.47;101065.00;4956347;28;97678;-74
2021/08/20 05:04:34;;;;;;;;;;;;;;;22.06;58.73;101067.66;4959404;28;96999;-75
2021/08/20 05:07:01;;;;;;;;;;;;;;;22.10;58.22;101071.81;4961205;28;98982;-75
2021/08/20 05:09:27;;;;;;;;;;;;;;;22.02;58.96;101066.19;4968748;28;99097;-75
2021/08/20 05:11:55;;;;;;;;;;;;;;;22.03;58.95;101067.91;4963083;28;96970;-75
2021/08/20 05:14:21;;;;;;;;;;;;;;;22.25;58.69;101067.94;4960862;28;96719;-76
2021/08/20 05:16:48;;;;;;;;;;;;;;;22.24;58.76;101072.47;4956951;28;99204;-76
2021/08/20 05:19:14;;;;;;;;;;;;;;;22.31;59.05;101078.22;4946258;28;99140;-76
2021/08/20 05:21:41;;;;;;;;;;;;;;;22.22;59.41;101074.41;4951751;28;98661;-77
2021/08/20 05:24:07;;;;;;;;;;;;;;;22.32;58.60;101084.47;4951396;28;97061;-77
2021/08/20 05:26:33;;;;;;;;;;;;;;;22.47;58.40;101086.78;4951987;28;97819;-77
2021/08/20 05:29:01;;;;;;;;;;;;;;;22.37;58.63;101085.81;4949392;28;99702;-78
2021/08/20 05:31:27;;;;;;;;;;;;;;;22.34;58.68;101082.47;4948319;28;98716;-76
2021/08/20 05:33:54;;;;;;;;;;;;;;;22.44;58.75;101095.13;4948873;28;98670;-76
2021/08/20 05:36:20;;;;;;;;;;;;;;;22.49;58.23;101092.03;4948809;28;97575;-76
2021/08/20 05:38:47;;;;;;;;;;;;;;;22.26;59.29;101085.78;4951049;28;99512;-76
2021/08/20 05:41:13;;;;;;;;;;;;;;;22.35;58.63;101082.38;4948860;28;97225;-77
2021/08/20 05:43:39;;;;;;;;;;;;;;;22.40;58.70;101096.31;4949927;28;97048;-76
2021/08/20 05:46:07;;;;;;;;;;;;;;;22.44;58.40;101095.13;4946386;28;99143;-77
2021/08/20 05:48:33;;;;;;;;;;;;;;;22.46;58.54;101097.66;4949362;28;96915;-78
2021/08/20 05:50:59;;;;;;;;;;;;;;;22.48;58.65;101096.56;4944222;28;97604;-78
2021/08/20 05:53:26;;;;;;;;;;;;;;;22.66;58.23;101095.09;4946678;28;98461;-78
2021/08/20 05:55:52;;;;;;;;;;;;;;;22.55;57.86;101097.78;4946574;28;98847;-77
2021/08/20 05:58:18;;;;;;;;;;;;;;;22.55;58.40;101102.31;4947673;28;99217;-77
2021/08/20 06:00:52;;;;;;;;;;;;;;;22.46;58.55;101097.66;4950626;28;97762;-77
2021/08/20 06:03:21;;;;;;;;;;;;;;;22.46;58.30;101090.44;4954842;28;97197;-77
2021/08/20 06:06:20;;;;;;;;;;;;;;;22.74;57.92;101090.97;4949777;28;97843;-76
2021/08/20 06:08:47;;;;;;;;;;;;;;;22.66;58.48;101094.22;4957290;28;98899;-76
2021/08/20 06:11:13;;;;;;;;;;;;;;;22.81;58.26;101090.34;4963826;28;96763;-76
2021/08/20 06:13:39;;;;;;;;;;;;;;;23.06;57.39;101091.88;4961383;28;97098;-76
2021/08/20 06:18:51;;;;;;;;;;;;;;;23.19;57.13;101097.13;4948654;28;97321;-76
2021/08/20 06:21:17;;;;;;;;;;;;;;;23.29;57.16;101098.94;4949369;28;98818;-76
2021/08/20 06:23:44;;;;;;;;;;;;;;;23.11;57.45;101095.06;4951205;28;96918;-77
2021/08/20 06:26:10;;;;;;;;;;;;;;;23.33;57.03;101097.69;4949711;28;99117;-75
2021/08/20 06:28:36;;;;;;;;;;;;;;;23.33;56.66;101097.69;4950469;28;98016;-76
2021/08/20 06:31:04;;;;;;;;;;;;;;;23.41;56.62;101097.06;4947332;28;97645;-76
2021/08/20 06:33:30;;;;;;;;;;;;;;;23.40;56.81;101104.28;4946289;28;97090;-77
2021/08/20 06:35:58;;;;;;;;;;;;;;;23.50;56.77;101100.88;4939414;28;98533;-77
2021/08/20 06:38:24;;;;;;;;;;;;;;;23.68;56.25;101099.31;4945027;28;99845;-78
2021/08/20 06:40:50;;;;;;;;;;;;;;;23.69;55.62;101095.63;4954624;28;97248;-78
2021/08/20 06:43:17;;;;;;;;;;;;;;;23.87;55.57;101094.06;4952761;28;97493;-78
2021/08/20 06:45:43;;;;;;;;;;;;;;;23.81;55.61;101091.88;4948548;28;98934;-78
2021/08/20 06:48:09;;;;;;;;;;;;;;;24.07;54.06;101090.50;4959870;28;98812;-77
2021/08/20 06:50:35;;;;;;;;;;;;;;;24.23;53.88;101092.72;4951534;28;97194;-78
2021/08/20 06:53:04;;;;;;;;;;;;;;;24.25;53.57;101092.59;4944222;28;97625;-77
2021/08/20 06:55:31;;;;;;;;;;;;;;;23.98;54.28;101093.97;4946740;28;98999;-77
2021/08/20 06:57:57;;;;;;;;;;;;;;;24.06;53.60;101096.88;4946378;28;98797;-76
2021/08/20 07:00:23;;;;;;;;;;;;;;;23.89;54.27;101092.09;4946956;28;98951;-76
2021/08/20 07:02:50;;;;;;;;;;;;;;;24.12;53.10;101093.66;4946284;28;98854;-77
2021/08/20 07:05:17;;;;;;;;;;;;;;;23.97;53.61;101103.06;4945931;28;99198;-77
2021/08/20 07:07:44;;;;;;;;;;;;;;;24.47;51.81;101101.41;4946720;28;99219;-77
2021/08/20 07:10:13;;;;;;;;;;;;;;;23.96;52.96;101095.94;4945150;28;96928;-77
2021/08/20 07:12:39;;;;;;;;;;;;;;;24.30;51.56;101098.47;4949672;28;97598;-77
2021/08/20 07:15:07;;;;;;;;;;;;;;;24.34;51.34;101102.63;4943415;28;98766;-77
2021/08/20 07:17:33;;;;;;;;;;;;;;;23.99;52.21;101100.25;4944115;28;99697;-77
2021/08/20 07:20:00;;;;;;;;;;;;;;;24.18;51.31;101103.91;4949169;28;99494;-77
2021/08/20 07:22:26;;;;;;;;;;;;;;;24.06;51.40;101099.59;4946251;28;98597;-76
2021/08/20 07:24:52;;;;;;;;;;;;;;;23.24;53.15;101117.31;4945026;28;97856;-80
2021/08/20 07:27:21;;;;;;;;;;;;;;;23.67;52.11;101116.47;4949806;28;98435;-77
2021/08/20 07:29:47;;;;;;;;;;;;;;;22.94;53.62;101111.75;4944993;28;97648;-77
2021/08/20 07:32:14;;;;;;;;;;;;;;;22.89;53.59;101108.59;4944028;28;97289;-77
2021/08/20 07:34:40;;;;;;;;;;;;;;;23.52;52.65;101112.34;4944537;28;98971;-76
2021/08/20 07:37:07;;;;;;;;;;;;;;;23.37;52.56;101106.38;4946389;28;99475;-77
2021/08/20 07:39:36;;;;;;;;;;;;;;;23.42;52.21;101109.56;4948365;28;97737;-77
2021/08/20 07:42:02;;;;;;;;;;;;;;;23.58;52.13;101103.75;4942498;28;97663;-77
2021/08/20 07:44:31;;;;;;;;;;;;;;;23.36;52.43;101113.63;4946239;28;99060;-78
2021/08/20 07:46:57;;;;;;;;;;;;;;;23.22;52.74;101121.13;4941836;28;99788;-79
2021/08/20 07:49:24;;;;;;;;;;;;;;;22.04;56.01;101135.06;4942295;28;97724;-78
2021/08/20 07:51:50;;;;;;;;;;;;;;;21.92;55.53;101135.97;4942767;28;97298;-76
2021/08/20 07:54:16;;;;;;;;;;;;;;;21.64;56.37;101147.97;4943672;28;98896;-77
2021/08/20 07:56:42;;;;;;;;;;;;;;;21.61;56.94;101152.69;4944006;28;100568;-76
2021/08/20 07:59:09;;;;;;;;;;;;;;;21.31;57.17;101145.09;4941318;28;97044;-77
2021/08/20 08:01:36;;;;;;;;;;;;;;;21.53;56.75;101147.88;4950749;28;96978;-78
2021/08/20 08:04:03;;;;;;;;;;;;;;;22.12;54.81;101146.06;4939225;28;99117;-77
2021/08/20 08:06:31;;;;;;;;;;;;;;;22.27;54.06;101146.72;4946215;28;98826;-78
2021/08/20 08:08:57;;;;;;;;;;;;;;;22.44;53.36;101154.34;4943562;28;96889;-76
2021/08/20 08:11:23;;;;;;;;;;;;;;;22.54;52.90;101149.94;4944866;28;99080;-78
2021/08/20 08:13:50;;;;;;;;;;;;;;;22.65;52.30;101152.63;4941807;28;97922;-77
2021/08/20 08:16:16;;;;;;;;;;;;;;;22.47;52.62;101159.47;4943076;28;98830;-79
2021/08/20 08:18:44;;;;;;;;;;;;;;;22.31;53.38;101163.50;4946732;28;97315;-77
2021/08/20 08:21:10;;;;;;;;;;;;;;;22.63;52.38;101159.13;4951779;28;97521;-78
2021/08/20 08:23:36;;;;;;;;;;;;;;;22.71;51.85;101156.66;4946315;28;97969;-77
2021/08/20 08:26:03;;;;;;;;;;;;;;;22.82;51.77;101159.41;4949154;28;99401;-78
2021/08/20 08:28:29;;;;;;;;;;;;;;;21.35;54.60;101157.34;4949895;28;97182;-78
2021/08/20 08:31:01;;;;;;;;;;;;;;;21.94;54.14;101157.34;4947453;28;97393;-77
2021/08/20 08:33:27;;;;;;;;;;;;;;;22.20;53.30;101154.41;4944472;28;98941;-77
2021/08/20 08:35:54;;;;;;;;;;;;;;;22.19;53.32;101160.75;4948492;28;99544;-77
2021/08/20 08:38:21;;;;;;;;;;;;;;;21.80;52.82;101159.25;4949498;28;96956;-76
2021/08/20 08:40:49;;;;;;;;;;;;;;;21.31;55.52;101174.66;4950338;28;98342;-77
2021/08/20 08:43:16;;;;;;;;;;;;;;;22.21;52.93;101174.97;4949489;28;98905;-77
2021/08/20 08:45:42;;;;;;;;;;;;;;;21.99;53.58;101177.59;4947364;28;98832;-79
2021/08/20 08:48:10;;;;;;;;;;;;;;;22.08;53.46;101184.97;4948258;28;96879;-77
2021/08/20 08:50:37;;;;;;;;;;;;;;;22.40;52.72;101185.16;4952909;28;97314;-78
2021/08/20 08:53:05;;;;;;;;;;;;;;;22.57;52.13;101187.41;4946908;28;101638;-75
2021/08/20 08:55:32;;;;;;;;;;;;;;;22.57;52.16;101192.81;4947145;28;100242;-77
2021/08/20 08:57:58;;;;;;;;;;;;;;;22.75;51.86;101197.75;4951515;28;98804;-77
2021/08/20 09:00:28;;;;;;;;;;;;;;;22.72;52.15;101201.50;4952566;28;98690;-76
2021/08/20 09:02:55;;;;;;;;;;;;;;;23.17;51.01;101207.75;4950109;28;98919;-75
2021/08/20 09:05:21;;;;;;;;;;;;;;;23.14;50.40;101224.19;4948642;28;99226;-77
2021/08/20 09:07:50;;;;;;;;;;;;;;;22.99;51.04;101211.94;4953654;28;97829;-75
2021/08/20 09:10:19;;;;;;;;;;;;;;;23.25;50.27;101216.09;4961481;28;97254;-79
2021/08/20 09:12:53;;;;;;;;;;;;;;;23.46;49.97;101213.50;4961932;28;97945;-77
2021/08/20 09:15:20;;;;;;;;;;;;;;;23.74;49.38;101215.66;4954591;28;97783;-78
2021/08/20 09:17:47;;;;;;;;;;;;;;;23.66;49.08;101214.56;4958167;28;96979;-76
2021/08/20 09:20:18;;;;;;;;;;;;;;;24.01;48.26;101215.19;4964259;28;96784;-75
2021/08/20 09:22:44;;;;;;;;;;;;;;;23.49;49.83;101218.69;4960798;28;98810;-76
2021/08/20 09:25:28;;;;;;;;;;;;;;;23.62;49.20;101219.38;4962211;28;98994;-77
2021/08/20 09:28:08;;;;;;;;;;;;;;;23.23;50.38;101228.88;4959144;28;97336;-77
2021/08/20 09:30:34;;;;;;;;;;;;;;;23.35;50.24;101221.59;4965397;28;96957;-76
2021/08/20 09:33:00;;;;;;;;;;;;;;;23.83;49.05;101222.97;4962272;28;99237;-80
2021/08/20 09:35:35;;;;;;;;;;;;;;;24.05;48.28;101221.19;4970527;28;97510;-77
2021/08/20 09:38:06;;;;;;;;;;;;;;;23.73;49.15;101218.47;4969396;28;97048;-79
2021/08/20 09:40:33;;;;;;;;;;;;;;;23.36;50.26;101217.94;4973129;28;96972;-76
2021/08/20 09:43:13;;;;;;;;;;;;;;;23.30;50.59;101216.56;4969165;28;99816;-77
2021/08/20 09:45:39;;;;;;;;;;;;;;;23.00;52.10;101211.81;4962477;28;98027;-75
2021/08/20 09:48:06;;;;;;;;;;;;;;;23.08;51.43;101208.53;4962719;28;97254;-77
2021/08/20 09:50:50;;;;;;;;;;;;;;;23.93;49.32;101212.28;4951990;28;97065;-77
2021/08/20 09:53:19;;;;;;;;;;;;;;;24.66;47.49;101205.16;4951725;28;98968;-78
2021/08/20 09:55:45;;;;;;;;;;;;;;;25.17;45.68;101210.53;4950142;28;100005;-79
2021/08/20 09:58:13;;;;;;;;;;;;;;;23.88;47.67;101219.91;4952507;28;97024;-76
2021/08/20 10:00:41;;;;;;;;;;;;;;;24.53;46.53;101216.16;4952176;28;97206;-77
2021/08/20 10:03:08;;;;;;;;;;;;;;;24.55;46.67;101211.47;4947571;28;99075;-78
2021/08/20 10:05:35;;;;;;;;;;;;;;;23.06;49.01;101199.69;4949026;28;98638;-77
2021/08/20 10:08:02;;;;;;;;;;;;;;;23.59;48.66;101202.56;4946553;28;98857;-76
2021/08/20 10:10:29;;;;;;;;;;;;;;;24.10;47.55;101200.03;4948858;28;97215;-76
2021/08/20 10:12:56;;;;;;;;;;;;;;;24.62;46.20;101199.16;4943834;28;98894;-77
2021/08/20 10:15:23;;;;;;;;;;;;;;;24.95;44.94;101198.91;4945482;28;99157;-76
2021/08/20 10:17:50;;;;;;;;;;;;;;;25.33;44.34;101191.94;4945876;28;99025;-78
2021/08/20 10:20:17;;;;;;;;;;;;;;;25.27;44.23;101200.63;4945972;28;97309;-78
2021/08/20 10:22:43;;;;;;;;;;;;;;;25.96;42.92;101208.72;4949297;28;98966;-77
2021/08/20 10:25:10;;;;;;;;;;;;;;;25.51;43.92;101206.50;4948139;28;98761;-77
2021/08/20 10:27:37;;;;;;;;;;;;;;;25.20;44.30;101218.38;4947090;28;97086;-77
2021/08/20 10:30:05;;;;;;;;;;;;;;;24.52;46.25;101207.22;4947523;28;97493;-77
2021/08/20 10:32:33;;;;;;;;;;;;;;;25.65;43.86;101211.56;4951749;28;99411;-77
2021/08/20 10:34:59;;;;;;;;;;;;;;;25.79;43.19;101210.28;4949940;28;101383;-77
2021/08/20 10:37:27;;;;;;;;;;;;;;;26.20;42.54;101209.13;4948889;28;97281;-76
2021/08/20 10:39:55;;;;;;;;;;;;;;;25.44;43.87;101218.03;4949774;28;96952;-77
2021/08/20 10:42:36;;;;;;;;;;;;;;;25.99;42.74;101211.16;4953910;28;98123;-77
2021/08/20 10:45:04;;;;;;;;;;;;;;;26.34;41.02;101206.00;4951272;28;98920;-75
2021/08/20 10:47:31;;;;;;;;;;;;;;;26.08;41.09;101194.03;4959092;28;96947;-77
2021/08/20 10:50:09;;;;;;;;;;;;;;;25.42;42.50;101196.50;4956397;28;96988;-77
2021/08/20 10:52:36;;;;;;;;;;;;;;;25.85;42.05;101196.19;4951289;28;98893;-77
2021/08/20 10:55:10;;;;;;;;;;;;;;;25.27;42.64;101198.75;4948937;28;98801;-77
2021/08/20 10:58:12;;;;;;;;;;;;;;;26.14;41.25;101194.31;4951137;28;97018;-79
2021/08/20 11:00:39;;;;;;;;;;;;;;;26.45;39.79;101195.00;4906069;28;97024;-87
2021/08/20 11:05:56;;;;;;;;;;;;;;;26.90;37.93;101187.06;4950748;28;98121;-90
2021/08/20 11:08:35;;;;;;;;;;;;;;;27.01;37.55;101196.00;4960203;28;96293;-91
2021/08/20 11:11:08;;;;;;;;;;;;;;;26.68;38.77;101189.25;4975465;28;96598;-90
2021/08/20 11:13:35;;;;;;;;;;;;;;;25.85;40.16;101198.91;4991417;28;97245;-91
2021/08/20 11:16:04;;;;;;;;;;;;;;;25.92;39.87;101196.47;5038755;22;102786;-89
2021/08/20 11:18:41;;;;;;;;;;;;;;;26.36;39.60;101200.47;4974691;28;95921;-89
2021/08/20 11:21:38;;;;;;;;;;;;;;;26.08;39.37;101202.16;4974399;28;96815;-90
2021/08/20 11:24:10;;;;;;;;;;;;;;;26.89;38.20;101201.63;5050321;22;100052;-89
2021/08/20 11:26:37;;;;;;;;;;;;;;;26.93;37.69;101202.16;5011243;28;98099;-91
2021/08/20 11:29:03;;;;;;;;;;;;;;;27.00;36.47;101200.56;5010269;28;96648;-91
2021/08/20 11:31:30;;;;;;;;;;;;;;;26.67;36.43;101192.97;5015296;28;96494;-90
2021/08/20 11:34:04;;;;;;;;;;;;;;;26.59;37.19;101197.25;5016180;28;98261;-87
2021/08/20 11:37:00;;;;;;;;;;;;;;;26.70;36.85;101189.97;5017134;28;98064;-90
2021/08/20 11:39:29;;;;;;;;;;;;;;;26.41;37.72;101188.19;5001059;28;96787;-89
2021/08/20 11:42:08;;;;;;;;;;;;;;;26.65;37.36;101186.84;5005294;28;97189;-85
2021/08/20 11:44:35;;;;;;;;;;;;;;;25.71;38.61;101194.75;5031354;22;98935;-87
2021/08/20 11:47:01;;;;;;;;;;;;;;;25.37;39.75;101196.06;4982079;28;96826;-78
2021/08/20 11:54:41;;;;;;;;;;;;;;;24.88;41.00;101199.56;5328848;22;100522;-80
2021/08/20 11:57:07;;;;;;;;;;;;;;;24.94;41.06;101202.59;5009279;28;96667;-90
2021/08/20 11:59:37;;;;;;;;;;;;;;;24.51;41.88;101212.75;5019694;28;96656;-88
2021/08/20 12:02:05;;;;;;;;;;;;;;;24.16;42.61;101208.47;5017728;28;96899;-90
2021/08/20 12:04:37;;;;;;;;;;;;;;;24.45;42.05;101203.31;5016751;28;98236;-86
2021/08/20 12:07:04;;;;;;;;;;;;;;;24.33;42.40;101207.09;5012987;28;99166;-89
2021/08/20 12:09:30;;;;;;;;;;;;;;;24.46;42.26;101215.84;5014695;27;96105;-90
2021/08/20 12:11:58;;;;;;;;;;;;;;;24.74;41.78;101216.16;5016525;28;96117;-87
2021/08/20 12:14:27;;;;;;;;;;;;;;;24.89;41.82;101218.38;5013506;27;97602;-90
2021/08/20 12:19:30;;;;;;;;;;;;;;;24.81;42.02;101225.44;5042474;22;97303;-89
2021/08/20 12:21:57;;;;;;;;;;;;;;;24.64;42.37;101226.91;5020781;28;96101;-90
2021/08/20 12:24:33;;;;;;;;;;;;;;;24.46;42.99;101220.38;5019776;28;98073;-85
2021/08/20 12:30:10;;;;;;;;;;;;;;;25.38;41.27;101220.28;5019509;28;95989;-86
2021/08/20 12:35:26;;;;;;;;;;;;;;;26.20;39.96;101217.25;5020169;27;98897;-87
2021/08/20 12:38:06;;;;;;;;;;;;;;;25.90;40.86;101220.97;5017130;28;98129;-87
2021/08/20 12:40:37;;;;;;;;;;;;;;;26.64;39.59;101225.78;5013859;28;96407;-84
2021/08/20 12:43:05;;;;;;;;;;;;;;;25.73;40.97;101222.50;5014949;28;97711;-84
2021/08/20 12:45:33;;;;;;;;;;;;;;;26.07;40.59;101211.28;5021161;28;98178;-86
2021/08/20 12:48:01;;;;;;;;;;;;;;;26.68;38.94;101211.78;5019038;28;98239;-87
2021/08/20 12:50:28;;;;;;;;;;;;;;;27.10;38.23;101208.69;5012478;28;95989;-89
2021/08/20 12:58:48;;;;;;;;;;;;;;;28.31;35.55;101206.44;5021407;28;98624;-80
2021/08/20 13:01:20;;;;;;;;;;;;;;;28.09;35.78;101210.47;5013917;28;95925;-78
2021/08/20 13:03:55;;;;;;;;;;;;;;;27.36;36.73;101207.84;5019124;27;96125;-80